Thornton, Colorado
Current Conditions -  °F | °C
As of 4:50 PM on Friday 24 Oct 2014 (Local Time) from KBJC Reporting Station
Clear Clear  
Wind Chill: 81°   Ceiling: Unl
Heat Index: 81°   Visibility: 50mi
Dew Point: 23°   Wind: 0mph
Humidity: 12%   Direction: NA
Pressure: 30.16"   Gusts: NA
Location:  39.87°N, 104.98°W
Report Text: KBJC 242250Z 00000KT 50SM SKC 27/M05 A3016
Loading
Personal Weather Stations






























Interactive Weather Map
Tropical Storm Tracking
New forecast layout! Learn more

10-Day Weather Forecast

Advertisements
Track Severe Weather on mobile